Herzlich willkommen!

Am freundlichen Bodensee-Flugplatz zwischen Schwarzwald, Rhein und Alpen.

Aktuelles

06.10.2019
Winterpause
16. Dez. 2019 bis 30. Jan. 2020 NOTAM Q) LSAS/QFAAP/IV/NBO /A /000/999/4741N00908E A) EDTZ B) 19/12/16 00:00 C) 20/01/30 23:59 E) AD PPR +49 (0) 1727411981.
— Flugleitung EDTZ

Live am Platz

Die Bilder unserer Webcams werden alle 5 Minuten aktualisiert.

Sonnenaufgang:

07:02 UTC / 08:02 Lokal

Sonnenuntergang:

15:33 UTC / 16:33 Lokal

METAR (14.12.2019 07:50 UTC):

EDNY 140650Z 25021G32KT 9999 -RA FEW027 SCT032 OVC036 08/04 Q0994
VFR

TAF (14.12.2019 06:00 UTC):

TAF EDNY 140500Z 1406/1506 22010KT 9999 SCT025 BECMG 1406/1409 25020G35KT PROB40 TEMPO 1409/1412 26025G40KT SHRA SCT012 BKN020TCU BECMG 1413/1415 24015G25KT BECMG 1416/1419 24012KT TEMPO 1500/1503 RA

Alle Angaben unverbindlich und ohne Gewähr. Zeiten genähert.

Für den Verkehrslandeplatz Konstanz werden keine offiziellen Wetterinformationen ausgegeben. Daher werden zur Orientierung Daten des nahegelegenen Flughafens Friedrichshafen dargestellt.

Flugwetterdaten zur Verfügung gestellt von wippich.aero.